createdAt,value
2023-04-24T00:00:13.284Z,100.00
2023-04-24T00:03:10.440Z,100.00
2023-04-24T00:06:09.079Z,100.00
2023-04-24T00:09:06.037Z,100.00
2023-04-24T00:12:05.394Z,100.00
2023-04-24T00:15:03.008Z,100.00
2023-04-24T00:18:00.153Z,100.00
2023-04-24T00:20:57.050Z,100.00
2023-04-24T00:23:54.474Z,100.00
2023-04-24T00:26:51.259Z,100.00
2023-04-24T00:29:48.231Z,100.00
2023-04-24T00:32:45.128Z,100.00
2023-04-24T00:35:41.976Z,100.00
2023-04-24T00:38:38.802Z,100.00
2023-04-24T00:41:36.309Z,100.00
2023-04-24T00:44:35.463Z,100.00
2023-04-24T00:47:34.459Z,100.00
2023-04-24T00:50:31.464Z,100.00
2023-04-24T00:53:28.283Z,100.00
2023-04-24T00:56:25.226Z,100.00
2023-04-24T00:59:22.040Z,100.00
2023-04-24T01:02:19.678Z,100.00
2023-04-24T01:05:18.242Z,100.00
2023-04-24T01:08:16.213Z,100.00
2023-04-24T01:11:13.122Z,100.00
2023-04-24T01:14:10.684Z,100.00
2023-04-24T01:17:08.309Z,100.00
2023-04-24T01:20:06.880Z,100.00
2023-04-24T01:23:03.944Z,100.00
2023-04-24T01:26:01.005Z,100.00
2023-04-24T01:28:58.257Z,100.00
2023-04-24T01:31:56.254Z,100.00
2023-04-24T01:34:53.524Z,100.00
2023-04-24T01:37:50.561Z,100.00
2023-04-24T01:40:47.848Z,100.00
2023-04-24T01:43:44.794Z,100.00
2023-04-24T01:46:42.128Z,100.00
2023-04-24T01:49:42.367Z,100.00
2023-04-24T01:52:40.051Z,100.00
2023-04-24T01:55:36.865Z,100.00
2023-04-24T01:58:33.792Z,100.00
2023-04-24T02:01:39.326Z,100.00
2023-04-24T02:04:36.206Z,100.00
2023-04-24T02:07:33.785Z,100.00
2023-04-24T02:10:30.784Z,100.00
2023-04-24T02:13:27.627Z,100.00
2023-04-24T02:16:24.522Z,100.00
2023-04-24T02:19:21.456Z,100.00
2023-04-24T02:22:18.268Z,100.00
2023-04-24T02:25:15.243Z,100.00
2023-04-24T02:28:12.084Z,100.00
2023-04-24T02:31:08.938Z,100.00
2023-04-24T02:34:05.766Z,100.00
2023-04-24T02:37:02.601Z,100.00
2023-04-24T02:39:59.401Z,100.00
2023-04-24T02:42:56.225Z,100.00
2023-04-24T02:45:53.108Z,100.00
2023-04-24T02:48:49.959Z,100.00
2023-04-24T02:51:46.784Z,100.00
2023-04-24T02:54:44.102Z,100.00
2023-04-24T02:57:40.951Z,100.00
2023-04-24T03:00:37.759Z,100.00
2023-04-24T03:03:34.684Z,100.00
2023-04-24T03:06:33.861Z,100.00
2023-04-24T03:09:30.793Z,100.00
2023-04-24T03:12:27.638Z,100.00
2023-04-24T03:15:24.469Z,100.00
2023-04-24T03:18:21.579Z,100.00
2023-04-24T03:21:18.508Z,100.00
2023-04-24T03:24:15.472Z,100.00
2023-04-24T03:27:12.311Z,100.00
2023-04-24T03:30:09.716Z,100.00
2023-04-24T03:33:06.697Z,100.00
2023-04-24T03:36:04.035Z,100.00
2023-04-24T03:39:00.857Z,100.00
2023-04-24T03:41:57.701Z,100.00
2023-04-24T03:44:54.585Z,100.00
2023-04-24T03:47:51.483Z,100.00
2023-04-24T03:50:48.379Z,100.00
2023-04-24T03:53:45.234Z,100.00
2023-04-24T03:56:42.055Z,100.00
2023-04-24T03:59:38.854Z,100.00
2023-04-24T04:02:35.863Z,100.00
2023-04-24T04:05:32.885Z,100.00
2023-04-24T04:08:29.686Z,100.00
2023-04-24T04:11:26.769Z,100.00
2023-04-24T04:14:24.454Z,100.00
2023-04-24T04:17:21.287Z,100.00
2023-04-24T04:20:18.625Z,100.00
2023-04-24T04:23:15.759Z,100.00
2023-04-24T04:26:13.825Z,100.00
2023-04-24T04:29:11.266Z,100.00
2023-04-24T04:32:08.265Z,100.00
2023-04-24T04:35:06.112Z,100.00
2023-04-24T04:38:02.938Z,100.00
2023-04-24T04:40:59.856Z,100.00
2023-04-24T04:43:59.540Z,100.00
2023-04-24T04:46:57.398Z,100.00
2023-04-24T04:49:54.521Z,100.00
2023-04-24T04:52:51.378Z,100.00
2023-04-24T04:55:48.539Z,100.00
2023-04-24T04:58:45.505Z,100.00
2023-04-24T05:01:42.445Z,100.00
2023-04-24T05:04:39.562Z,100.00
2023-04-24T05:07:36.682Z,100.00
2023-04-24T05:10:33.511Z,100.00
2023-04-24T05:13:39.203Z,100.00
2023-04-24T05:16:38.211Z,100.00
2023-04-24T05:19:37.015Z,100.00
2023-04-24T05:22:34.131Z,100.00
2023-04-24T05:25:33.216Z,100.00
2023-04-24T05:28:30.110Z,100.00
2023-04-24T05:31:27.029Z,100.00
2023-04-24T05:34:24.001Z,100.00
2023-04-24T05:37:20.818Z,100.00
2023-04-24T05:40:17.807Z,100.00
2023-04-24T05:43:14.783Z,100.00
2023-04-24T05:46:13.039Z,100.00
2023-04-24T05:49:09.913Z,100.00
2023-04-24T05:52:09.670Z,100.00
2023-04-24T05:55:07.311Z,100.00
2023-04-24T05:58:04.163Z,100.00
2023-04-24T06:01:02.647Z,100.00
2023-04-24T06:03:59.749Z,100.00
2023-04-24T06:06:57.152Z,100.00
2023-04-24T06:09:54.083Z,100.00
2023-04-24T06:12:51.009Z,100.00
2023-04-24T06:15:47.847Z,100.00
2023-04-24T06:18:44.714Z,100.00
2023-04-24T06:21:41.580Z,100.00
2023-04-24T06:24:38.399Z,100.00
2023-04-24T06:27:36.163Z,100.00
2023-04-24T06:30:33.081Z,100.00
2023-04-24T06:33:30.428Z,100.00
2023-04-24T06:36:27.433Z,100.00
2023-04-24T06:39:24.261Z,100.00
2023-04-24T06:42:22.933Z,100.00
2023-04-24T06:45:20.140Z,100.00
2023-04-24T06:48:16.972Z,100.00
2023-04-24T06:51:13.826Z,100.00
2023-04-24T06:54:11.759Z,100.00
2023-04-24T06:57:09.677Z,100.00
2023-04-24T07:00:08.183Z,100.00
2023-04-24T07:03:06.824Z,100.00
2023-04-24T07:06:05.278Z,100.00
2023-04-24T07:09:02.761Z,100.00
2023-04-24T07:11:59.645Z,100.00
2023-04-24T07:14:56.519Z,100.00
2023-04-24T07:17:53.348Z,100.00
2023-04-24T07:20:51.238Z,100.00
2023-04-24T07:23:48.074Z,100.00
2023-04-24T07:26:44.937Z,100.00
2023-04-24T07:29:42.727Z,100.00
2023-04-24T07:32:39.756Z,100.00
2023-04-24T07:35:36.675Z,100.00
2023-04-24T07:38:33.546Z,100.00
2023-04-24T07:41:30.362Z,100.00
2023-04-24T07:44:27.394Z,100.00
2023-04-24T07:47:24.917Z,100.00
2023-04-24T07:50:22.034Z,100.00
2023-04-24T07:53:19.013Z,100.00
2023-04-24T07:56:15.893Z,100.00
2023-04-24T07:59:13.432Z,100.00
2023-04-24T08:02:10.776Z,100.00
2023-04-24T08:05:08.813Z,100.00
2023-04-24T08:08:05.918Z,100.00
2023-04-24T08:11:02.780Z,100.00
2023-04-24T08:14:00.197Z,100.00
2023-04-24T08:16:57.303Z,100.00
2023-04-24T08:20:00.191Z,100.00
2023-04-24T08:22:57.559Z,100.00
2023-04-24T08:25:54.968Z,100.00
2023-04-24T08:28:51.821Z,100.00
2023-04-24T08:31:48.751Z,100.00
2023-04-24T08:34:46.782Z,100.00
2023-04-24T08:37:45.737Z,100.00
2023-04-24T08:40:42.866Z,97.64
2023-04-24T08:43:40.960Z,96.66
2023-04-24T08:46:38.532Z,100.00
2023-04-24T08:49:37.573Z,100.00
2023-04-24T08:52:35.380Z,100.00
2023-04-24T08:55:34.015Z,100.00
2023-04-24T08:58:32.743Z,100.00
2023-04-24T09:01:32.929Z,100.00
2023-04-24T09:04:31.289Z,100.00
2023-04-24T09:07:31.316Z,100.00
2023-04-24T09:10:31.413Z,100.00
2023-04-24T09:13:28.575Z,80.00
2023-04-24T09:16:27.360Z,94.80
2023-04-24T09:19:24.252Z,80.35
2023-04-24T09:22:22.072Z,87.20
2023-04-24T09:25:19.571Z,93.22
2023-04-24T09:28:17.494Z,100.00
2023-04-24T09:31:23.016Z,97.61
2023-04-24T09:34:28.485Z,86.45
2023-04-24T09:37:30.529Z,69.02
2023-04-24T09:40:27.534Z,91.00
2023-04-24T09:43:27.339Z,84.66
2023-04-24T09:46:35.134Z,85.38
2023-04-24T09:49:36.860Z,98.00
2023-04-24T09:52:33.689Z,94.42
2023-04-24T09:55:31.883Z,86.21
2023-04-24T09:58:30.760Z,85.64
2023-04-24T10:01:34.824Z,78.35
2023-04-24T10:04:31.755Z,80.82
2023-04-24T10:07:29.088Z,76.72
2023-04-24T10:10:26.749Z,73.39
2023-04-24T10:13:23.652Z,68.93
2023-04-24T10:16:22.320Z,71.62
2023-04-24T10:19:19.794Z,72.52
2023-04-24T10:22:18.597Z,76.88
2023-04-24T10:25:17.450Z,66.68
2023-04-24T10:28:15.249Z,75.84
2023-04-24T10:31:14.031Z,70.10
2023-04-24T10:34:11.919Z,73.86
2023-04-24T10:37:08.863Z,68.49
2023-04-24T10:40:08.759Z,57.21
2023-04-24T10:43:11.920Z,61.74
2023-04-24T10:46:11.477Z,75.59
2023-04-24T10:49:12.639Z,73.95
2023-04-24T10:52:10.500Z,80.18
2023-04-24T10:55:11.028Z,77.60
2023-04-24T10:58:07.884Z,74.21
2023-04-24T11:01:05.263Z,70.49
2023-04-24T11:04:04.591Z,74.77
2023-04-24T11:07:03.141Z,72.84
2023-04-24T11:10:02.160Z,80.07
2023-04-24T11:12:58.980Z,69.50
2023-04-24T11:16:36.793Z,72.05
2023-04-24T11:19:35.362Z,73.20
2023-04-24T11:22:36.384Z,77.64
2023-04-24T11:25:33.814Z,74.68
2023-04-24T11:28:30.702Z,72.23
2023-04-24T11:31:49.570Z,68.14
2023-04-24T11:35:02.153Z,66.76
2023-04-24T11:41:06.942Z,79.80
2023-04-24T11:44:07.011Z,79.93
2023-04-24T11:47:08.083Z,84.29
2023-04-24T11:50:08.739Z,81.53
2023-04-24T11:53:05.602Z,85.26
2023-04-24T11:56:06.026Z,84.76
2023-04-24T11:59:05.642Z,83.43
2023-04-24T12:02:02.473Z,92.69
2023-04-24T12:04:59.421Z,91.63
2023-04-24T12:07:56.474Z,94.12
2023-04-24T12:10:53.400Z,91.94
2023-04-24T12:13:50.834Z,93.01
2023-04-24T12:16:50.895Z,91.13
2023-04-24T12:19:49.580Z,91.29
2023-04-24T12:22:55.292Z,90.06
2023-04-24T12:25:52.616Z,83.73
2023-04-24T12:28:51.115Z,88.00
2023-04-24T12:31:48.573Z,85.47
2023-04-24T12:34:45.627Z,79.21
2023-04-24T12:37:46.483Z,87.22
2023-04-24T12:40:45.388Z,88.79
2023-04-24T12:43:56.469Z,94.81
2023-04-24T12:46:53.420Z,96.27
2023-04-24T12:49:51.980Z,94.85
2023-04-24T12:52:48.931Z,92.38
2023-04-24T12:55:47.877Z,86.83
2023-04-24T12:58:44.689Z,88.34
2023-04-24T13:01:42.460Z,87.38
2023-04-24T13:04:39.339Z,85.35
2023-04-24T13:07:36.221Z,92.51
2023-04-24T13:10:33.111Z,88.90
2023-04-24T13:13:29.953Z,93.54
2023-04-24T13:16:26.785Z,95.46
2023-04-24T13:19:27.911Z,99.02
2023-04-24T13:22:24.847Z,97.23
2023-04-24T13:25:23.710Z,97.45
2023-04-24T13:28:20.536Z,98.26
2023-04-24T13:31:17.939Z,96.89
2023-04-24T13:34:15.426Z,95.93
2023-04-24T13:37:12.428Z,99.69
2023-04-24T13:40:10.147Z,99.79
2023-04-24T13:43:07.008Z,98.70
2023-04-24T13:46:04.162Z,96.77
2023-04-24T13:49:01.240Z,96.70
2023-04-24T13:51:58.394Z,99.96
2023-04-24T13:54:55.386Z,98.90
2023-04-24T13:57:53.170Z,99.16
2023-04-24T14:00:50.055Z,99.44
2023-04-24T14:03:47.173Z,100.00
2023-04-24T14:06:45.188Z,100.00
2023-04-24T14:09:42.443Z,100.00
2023-04-24T14:12:39.269Z,100.00
2023-04-24T14:15:37.153Z,100.00
2023-04-24T14:18:34.034Z,100.00
2023-04-24T14:21:31.443Z,95.29
2023-04-24T14:24:28.280Z,100.00
2023-04-24T14:27:26.890Z,95.23
2023-04-24T14:30:23.825Z,81.30
2023-04-24T14:33:20.736Z,97.93
2023-04-24T14:36:17.741Z,100.00
2023-04-24T14:39:14.567Z,100.00
2023-04-24T14:42:11.379Z,100.00
2023-04-24T14:45:09.228Z,100.00
2023-04-24T14:48:06.319Z,100.00
2023-04-24T14:51:03.251Z,100.00
2023-04-24T14:54:00.117Z,100.00
2023-04-24T14:56:59.781Z,100.00
2023-04-24T14:59:56.648Z,100.00
2023-04-24T15:02:53.697Z,100.00
2023-04-24T15:05:51.860Z,100.00
2023-04-24T15:08:50.410Z,100.00
2023-04-24T15:11:47.974Z,100.00
2023-04-24T15:14:44.803Z,100.00
2023-04-24T15:17:41.674Z,100.00
2023-04-24T15:20:40.088Z,100.00
2023-04-24T15:23:37.335Z,100.00
2023-04-24T15:26:34.421Z,100.00
2023-04-24T15:29:31.336Z,100.00
2023-04-24T15:32:28.254Z,100.00
2023-04-24T15:35:25.299Z,100.00
2023-04-24T15:38:22.189Z,100.00
2023-04-24T15:41:19.029Z,100.00
2023-04-24T15:44:15.844Z,100.00
2023-04-24T15:47:14.990Z,100.00
2023-04-24T15:50:14.510Z,100.00
2023-04-24T15:53:11.569Z,100.00
2023-04-24T15:56:08.893Z,100.00
2023-04-24T15:59:06.375Z,100.00
2023-04-24T16:02:04.782Z,100.00
2023-04-24T16:05:01.986Z,100.00
2023-04-24T16:07:58.851Z,100.00
2023-04-24T16:10:55.744Z,100.00
2023-04-24T16:13:52.625Z,100.00
2023-04-24T16:16:49.446Z,100.00
2023-04-24T16:19:46.433Z,100.00
2023-04-24T16:22:43.313Z,100.00
2023-04-24T16:25:40.319Z,100.00
2023-04-24T16:28:37.226Z,100.00
2023-04-24T16:31:34.162Z,100.00
2023-04-24T16:34:31.105Z,100.00
2023-04-24T16:37:30.739Z,100.00
2023-04-24T16:40:27.656Z,100.00
2023-04-24T16:43:24.552Z,100.00
2023-04-24T16:46:21.665Z,100.00
2023-04-24T16:49:18.621Z,100.00
2023-04-24T16:52:16.304Z,100.00
2023-04-24T16:55:13.361Z,100.00
2023-04-24T16:58:10.328Z,100.00
2023-04-24T17:01:07.240Z,100.00
2023-04-24T17:04:04.246Z,100.00
2023-04-24T17:07:01.553Z,100.00
2023-04-24T17:09:58.426Z,100.00
2023-04-24T17:12:55.575Z,100.00
2023-04-24T17:15:52.477Z,100.00
2023-04-24T17:18:50.000Z,100.00
2023-04-24T17:21:47.027Z,100.00
2023-04-24T17:24:43.867Z,100.00
2023-04-24T17:27:40.742Z,100.00
2023-04-24T17:30:37.584Z,100.00
2023-04-24T17:33:34.445Z,100.00
2023-04-24T17:36:32.398Z,100.00
2023-04-24T17:39:29.270Z,100.00
2023-04-24T17:42:26.217Z,100.00
2023-04-24T17:45:23.095Z,100.00
2023-04-24T17:48:20.092Z,100.00
2023-04-24T17:51:16.916Z,100.00
2023-04-24T17:54:13.738Z,100.00
2023-04-24T17:57:10.659Z,100.00
2023-04-24T18:00:08.902Z,100.00
2023-04-24T18:03:08.842Z,100.00
2023-04-24T18:06:06.488Z,100.00
2023-04-24T18:09:03.535Z,100.00
2023-04-24T18:12:01.626Z,100.00
2023-04-24T18:15:13.017Z,100.00
2023-04-24T18:18:11.761Z,100.00
2023-04-24T18:21:08.604Z,100.00
2023-04-24T18:24:06.157Z,100.00
2023-04-24T18:27:03.703Z,100.00
2023-04-24T18:30:00.836Z,100.00
2023-04-24T18:32:58.517Z,100.00
2023-04-24T18:35:55.774Z,100.00
2023-04-24T18:38:52.660Z,100.00
2023-04-24T18:41:49.527Z,100.00
2023-04-24T18:44:46.473Z,100.00
2023-04-24T18:47:44.088Z,100.00
2023-04-24T18:50:41.093Z,100.00
2023-04-24T18:53:37.914Z,100.00
2023-04-24T18:56:34.721Z,100.00
2023-04-24T18:59:32.207Z,100.00
2023-04-24T19:02:29.687Z,100.00
2023-04-24T19:05:26.659Z,100.00
2023-04-24T19:08:23.549Z,100.00
2023-04-24T19:11:20.505Z,100.00
2023-04-24T19:14:19.327Z,100.00
2023-04-24T19:17:22.485Z,100.00
2023-04-24T19:20:19.872Z,100.00
2023-04-24T19:23:16.720Z,100.00
2023-04-24T19:26:14.511Z,100.00
2023-04-24T19:29:11.545Z,100.00
2023-04-24T19:32:08.968Z,100.00
2023-04-24T19:35:06.343Z,100.00
2023-04-24T19:38:03.188Z,100.00
2023-04-24T19:41:00.022Z,100.00
2023-04-24T19:43:56.825Z,100.00
2023-04-24T19:46:53.669Z,100.00
2023-04-24T19:49:50.545Z,100.00
2023-04-24T19:52:47.353Z,100.00
2023-04-24T19:55:44.181Z,100.00
2023-04-24T19:58:41.312Z,100.00
2023-04-24T20:01:39.636Z,100.00
2023-04-24T20:04:36.815Z,100.00
2023-04-24T20:07:34.196Z,100.00
2023-04-24T20:10:31.227Z,100.00
2023-04-24T20:13:28.203Z,100.00
2023-04-24T20:16:25.156Z,100.00
2023-04-24T20:19:22.238Z,100.00
2023-04-24T20:22:19.067Z,100.00
2023-04-24T20:25:16.319Z,100.00
2023-04-24T20:28:14.766Z,100.00
2023-04-24T20:31:11.611Z,100.00
2023-04-24T20:34:08.698Z,100.00
2023-04-24T20:37:06.271Z,100.00
2023-04-24T20:40:05.529Z,100.00
2023-04-24T20:43:02.556Z,100.00
2023-04-24T20:45:59.723Z,100.00
2023-04-24T20:48:56.754Z,100.00
2023-04-24T20:51:53.596Z,100.00
2023-04-24T20:54:50.458Z,100.00
2023-04-24T20:57:47.312Z,100.00
2023-04-24T21:00:44.947Z,100.00
2023-04-24T21:03:42.248Z,100.00
2023-04-24T21:06:39.165Z,100.00
2023-04-24T21:09:36.041Z,100.00
2023-04-24T21:12:32.852Z,100.00
2023-04-24T21:15:30.793Z,100.00
2023-04-24T21:18:27.666Z,100.00
2023-04-24T21:21:25.111Z,100.00
2023-04-24T21:24:22.791Z,100.00
2023-04-24T21:27:19.618Z,100.00
2023-04-24T21:30:16.622Z,100.00
2023-04-24T21:33:13.561Z,100.00
2023-04-24T21:36:10.605Z,100.00
2023-04-24T21:39:07.413Z,100.00
2023-04-24T21:42:04.506Z,100.00
2023-04-24T21:45:01.354Z,100.00
2023-04-24T21:47:59.641Z,100.00
2023-04-24T21:50:56.612Z,100.00
2023-04-24T21:53:53.433Z,100.00
2023-04-24T21:56:50.715Z,100.00
2023-04-24T21:59:47.756Z,100.00
2023-04-24T22:02:44.670Z,100.00
2023-04-24T22:05:41.643Z,100.00
2023-04-24T22:08:38.480Z,100.00
2023-04-24T22:11:36.845Z,100.00
2023-04-24T22:14:33.792Z,100.00
2023-04-24T22:17:30.681Z,100.00
2023-04-24T22:20:30.103Z,100.00
2023-04-24T22:23:27.071Z,100.00
2023-04-24T22:26:23.904Z,100.00
2023-04-24T22:29:20.710Z,100.00
2023-04-24T22:32:17.524Z,100.00
2023-04-24T22:35:14.324Z,100.00
2023-04-24T22:38:11.121Z,100.00
2023-04-24T22:41:08.316Z,100.00
2023-04-24T22:44:05.231Z,100.00
2023-04-24T22:47:06.920Z,100.00
2023-04-24T22:50:05.813Z,100.00
2023-04-24T22:53:02.671Z,100.00
2023-04-24T22:56:00.315Z,100.00
2023-04-24T22:58:58.706Z,100.00
2023-04-24T23:01:56.357Z,100.00
2023-04-24T23:04:54.310Z,100.00
2023-04-24T23:07:51.175Z,100.00
2023-04-24T23:10:48.207Z,100.00
2023-04-24T23:13:45.024Z,100.00
2023-04-24T23:16:42.770Z,100.00
2023-04-24T23:19:39.743Z,100.00
2023-04-24T23:22:36.617Z,100.00
2023-04-24T23:25:33.602Z,100.00
2023-04-24T23:28:30.496Z,100.00
2023-04-24T23:31:27.321Z,100.00
2023-04-24T23:34:24.277Z,100.00
2023-04-24T23:37:21.528Z,100.00
2023-04-24T23:40:18.422Z,100.00
2023-04-24T23:43:15.336Z,100.00
2023-04-24T23:46:12.728Z,100.00
2023-04-24T23:49:09.644Z,100.00
2023-04-24T23:52:06.657Z,100.00
2023-04-24T23:55:04.872Z,100.00
2023-04-24T23:58:01.776Z,100.00
